Painkiller — WDH9752 — position and weather

sailwx.info

Track history (hours):
 
Tides and Currents Weather Stations Pressure Air Temp Water Temp Dewpoint Dewpoint Depression Visibility Wind Speed Wind Dir Waves Ship Positions

Painkiller

Owner: Chevalier, Gregory j, West Linn, OR. More information available from US FCC via Universal Licensing System and Coast Guard Vessel Documentation Center.

Last reported at 2017-Oct-23 01:24 UTC. Time now 2017-Nov-24 05:46 UTC.
Position N 45°36' W 122°39'.
Warning: this ship's position is 32 days out of date.

Type: Pleasure craft. MMSI: 367671240.

Date/timePositionNaut miles runAvg speedWind from/ knotsBaromVisibWave heightAir tempDewpointWater temp
2017-Oct-23 01:24N 45°36' W 122°39'1 3.5
2017-Oct-23 01:00N 45°37' W 122°41'510.0
2017-Oct-23 00:29N 45°40' W 122°46'5 9.4
2017-Oct-23 00:00N 45°45' W 122°46'0 0.0
2017-Oct-21 17:44N 45°45' W 122°46'0 0.0
2017-Oct-21 17:28N 45°45' W 122°46'0 0.0
2017-Oct-21 00:54N 45°45' W 122°46'3 7.1
2017-Oct-21 00:30N 45°42' W 122°46'8 5.7
2017-Oct-20 23:09N 45°36' W 122°39'0 0.3
2017-Oct-20 22:56N 45°36' W 122°39'0 0.0
2017-Oct-20 22:26N 45°36' W 122°39'  
Track history (hours):
 
Tides and Currents Weather Stations Pressure Air Temp Water Temp Dewpoint Dewpoint Depression Visibility Wind Speed Wind Dir Waves Ship Positions

Painkiller

Owner: Chevalier, Gregory j, West Linn, OR. More information available from US FCC via Universal Licensing System and Coast Guard Vessel Documentation Center.

Last reported at 2017-Oct-23 01:24 UTC. Time now 2017-Nov-24 05:46 UTC.
Position N 45°36' W 122°39'.
Warning: this ship's position is 32 days out of date.

Type: Pleasure craft. MMSI: 367671240.

Date/timePositionNaut miles runAvg speedWind from/ knotsBaromVisibWave heightAir tempDewpointWater temp
2017-Oct-23 01:24N 45°36' W 122°39'1 3.5
2017-Oct-23 01:00N 45°37' W 122°41'510.0
2017-Oct-23 00:29N 45°40' W 122°46'5 9.4
2017-Oct-23 00:00N 45°45' W 122°46'0 0.0
2017-Oct-21 17:44N 45°45' W 122°46'0 0.0
2017-Oct-21 17:28N 45°45' W 122°46'0 0.0
2017-Oct-21 00:54N 45°45' W 122°46'3 7.1
2017-Oct-21 00:30N 45°42' W 122°46'8 5.7
2017-Oct-20 23:09N 45°36' W 122°39'0 0.3
2017-Oct-20 22:56N 45°36' W 122°39'0 0.0
2017-Oct-20 22:26N 45°36' W 122°39'  

Dump ship's entire track history